sensor_id;sensor_type;location;lat;lon;timestamp;P1;durP1;ratioP1;P2;durP2;ratioP2
73168;SDS011;61379;59.732;30.468;2023-01-26T00:02:13;9.40;;;8.80;;
73168;SDS011;61379;59.732;30.468;2023-01-26T00:04:40;10.05;;;9.35;;
73168;SDS011;61379;59.732;30.468;2023-01-26T00:07:07;9.20;;;8.60;;
73168;SDS011;61379;59.732;30.468;2023-01-26T00:09:33;8.13;;;7.63;;
73168;SDS011;61379;59.732;30.468;2023-01-26T00:12:00;8.45;;;7.95;;
73168;SDS011;61379;59.732;30.468;2023-01-26T00:14:27;8.77;;;8.18;;
73168;SDS011;61379;59.732;30.468;2023-01-26T00:17:15;9.60;;;8.85;;
73168;SDS011;61379;59.732;30.468;2023-01-26T00:19:53;9.15;;;8.52;;
73168;SDS011;61379;59.732;30.468;2023-01-26T00:22:20;9.82;;;9.18;;
73168;SDS011;61379;59.732;30.468;2023-01-26T00:24:47;8.45;;;7.95;;
73168;SDS011;61379;59.732;30.468;2023-01-26T00:27:14;8.77;;;8.18;;
73168;SDS011;61379;59.732;30.468;2023-01-26T00:29:40;9.40;;;8.68;;
73168;SDS011;61379;59.732;30.468;2023-01-26T00:32:07;9.18;;;8.45;;
73168;SDS011;61379;59.732;30.468;2023-01-26T00:34:35;8.82;;;8.23;;
73168;SDS011;61379;59.732;30.468;2023-01-26T00:37:02;8.93;;;8.32;;
73168;SDS011;61379;59.732;30.468;2023-01-26T00:39:28;9.70;;;8.80;;
73168;SDS011;61379;59.732;30.468;2023-01-26T00:41:55;8.98;;;8.38;;
73168;SDS011;61379;59.732;30.468;2023-01-26T00:44:38;9.00;;;8.30;;
73168;SDS011;61379;59.732;30.468;2023-01-26T00:47:06;8.88;;;8.30;;
73168;SDS011;61379;59.732;30.468;2023-01-26T00:49:33;9.75;;;8.95;;
73168;SDS011;61379;59.732;30.468;2023-01-26T00:52:01;9.48;;;8.77;;
73168;SDS011;61379;59.732;30.468;2023-01-26T00:54:28;8.38;;;7.85;;
73168;SDS011;61379;59.732;30.468;2023-01-26T00:56:55;9.10;;;8.50;;
73168;SDS011;61379;59.732;30.468;2023-01-26T00:59:21;9.95;;;9.05;;
73168;SDS011;61379;59.732;30.468;2023-01-26T01:01:48;9.57;;;8.88;;
73168;SDS011;61379;59.732;30.468;2023-01-26T01:04:15;8.85;;;8.25;;
73168;SDS011;61379;59.732;30.468;2023-01-26T01:06:42;9.65;;;8.95;;
73168;SDS011;61379;59.732;30.468;2023-01-26T01:09:10;9.82;;;8.90;;
73168;SDS011;61379;59.732;30.468;2023-01-26T01:11:36;8.77;;;8.18;;
73168;SDS011;61379;59.732;30.468;2023-01-26T01:14:03;8.90;;;8.32;;
73168;SDS011;61379;59.732;30.468;2023-01-26T01:16:30;8.88;;;8.25;;
73168;SDS011;61379;59.732;30.468;2023-01-26T01:18:56;8.38;;;7.88;;
73168;SDS011;61379;59.732;30.468;2023-01-26T01:21:23;8.70;;;8.00;;
73168;SDS011;61379;59.732;30.468;2023-01-26T01:23:50;9.88;;;9.13;;
73168;SDS011;61379;59.732;30.468;2023-01-26T01:26:18;9.15;;;8.60;;
73168;SDS011;61379;59.732;30.468;2023-01-26T01:28:45;9.25;;;8.57;;
73168;SDS011;61379;59.732;30.468;2023-01-26T01:31:12;9.40;;;8.70;;
73168;SDS011;61379;59.732;30.468;2023-01-26T01:33:39;9.38;;;8.68;;
73168;SDS011;61379;59.732;30.468;2023-01-26T01:36:06;9.20;;;8.50;;
73168;SDS011;61379;59.732;30.468;2023-01-26T01:38:33;8.45;;;7.95;;
73168;SDS011;61379;59.732;30.468;2023-01-26T01:41:00;9.68;;;8.82;;
73168;SDS011;61379;59.732;30.468;2023-01-26T01:43:28;8.55;;;8.02;;
73168;SDS011;61379;59.732;30.468;2023-01-26T01:45:55;9.77;;;9.15;;
73168;SDS011;61379;59.732;30.468;2023-01-26T01:48:22;9.02;;;8.32;;
73168;SDS011;61379;59.732;30.468;2023-01-26T01:50:51;9.98;;;9.20;;
73168;SDS011;61379;59.732;30.468;2023-01-26T01:53:19;9.13;;;8.30;;
73168;SDS011;61379;59.732;30.468;2023-01-26T01:55:50;8.50;;;8.00;;
73168;SDS011;61379;59.732;30.468;2023-01-26T01:58:17;8.90;;;8.40;;
73168;SDS011;61379;59.732;30.468;2023-01-26T02:00:45;9.45;;;8.75;;
73168;SDS011;61379;59.732;30.468;2023-01-26T02:03:12;9.32;;;8.57;;
73168;SDS011;61379;59.732;30.468;2023-01-26T02:05:42;9.25;;;8.52;;
73168;SDS011;61379;59.732;30.468;2023-01-26T02:08:12;10.23;;;9.52;;
73168;SDS011;61379;59.732;30.468;2023-01-26T02:10:39;9.38;;;8.77;;
73168;SDS011;61379;59.732;30.468;2023-01-26T02:13:07;9.27;;;8.68;;
73168;SDS011;61379;59.732;30.468;2023-01-26T02:15:34;8.82;;;8.30;;
73168;SDS011;61379;59.732;30.468;2023-01-26T02:18:03;9.20;;;8.40;;
73168;SDS011;61379;59.732;30.468;2023-01-26T02:20:31;10.68;;;9.98;;
73168;SDS011;61379;59.732;30.468;2023-01-26T02:23:04;9.50;;;8.80;;
73168;SDS011;61379;59.732;30.468;2023-01-26T02:25:32;9.43;;;8.82;;
73168;SDS011;61379;59.732;30.468;2023-01-26T02:28:03;10.43;;;9.63;;
73168;SDS011;61379;59.732;30.468;2023-01-26T02:30:30;10.05;;;9.35;;
73168;SDS011;61379;59.732;30.468;2023-01-26T02:32:57;10.45;;;9.57;;
73168;SDS011;61379;59.732;30.468;2023-01-26T02:35:24;11.27;;;10.48;;
73168;SDS011;61379;59.732;30.468;2023-01-26T02:37:51;10.13;;;9.27;;
73168;SDS011;61379;59.732;30.468;2023-01-26T02:40:21;9.40;;;8.75;;
73168;SDS011;61379;59.732;30.468;2023-01-26T02:42:50;10.98;;;9.88;;
73168;SDS011;61379;59.732;30.468;2023-01-26T02:45:20;9.32;;;8.73;;
73168;SDS011;61379;59.732;30.468;2023-01-26T02:47:47;10.63;;;9.82;;
73168;SDS011;61379;59.732;30.468;2023-01-26T02:50:14;10.80;;;9.90;;
73168;SDS011;61379;59.732;30.468;2023-01-26T02:52:40;9.20;;;8.40;;
73168;SDS011;61379;59.732;30.468;2023-01-26T02:55:07;9.90;;;9.10;;
73168;SDS011;61379;59.732;30.468;2023-01-26T02:57:49;9.63;;;8.90;;
73168;SDS011;61379;59.732;30.468;2023-01-26T03:00:17;9.10;;;8.55;;
73168;SDS011;61379;59.732;30.468;2023-01-26T03:02:45;10.27;;;9.48;;
73168;SDS011;61379;59.732;30.468;2023-01-26T03:05:12;8.75;;;8.18;;
73168;SDS011;61379;59.732;30.468;2023-01-26T03:07:39;9.63;;;8.93;;
73168;SDS011;61379;59.732;30.468;2023-01-26T03:10:06;9.98;;;9.18;;
73168;SDS011;61379;59.732;30.468;2023-01-26T03:12:33;9.90;;;9.27;;
73168;SDS011;61379;59.732;30.468;2023-01-26T03:15:00;10.48;;;9.55;;
73168;SDS011;61379;59.732;30.468;2023-01-26T03:17:45;10.20;;;9.20;;
73168;SDS011;61379;59.732;30.468;2023-01-26T03:20:12;9.73;;;9.02;;
73168;SDS011;61379;59.732;30.468;2023-01-26T03:22:56;10.35;;;9.43;;
73168;SDS011;61379;59.732;30.468;2023-01-26T03:25:49;12.00;;;10.90;;
73168;SDS011;61379;59.732;30.468;2023-01-26T03:28:33;9.38;;;8.77;;
73168;SDS011;61379;59.732;30.468;2023-01-26T03:31:00;10.75;;;9.65;;
73168;SDS011;61379;59.732;30.468;2023-01-26T03:33:32;11.63;;;10.48;;
73168;SDS011;61379;59.732;30.468;2023-01-26T03:35:59;9.63;;;8.98;;
73168;SDS011;61379;59.732;30.468;2023-01-26T03:38:26;10.93;;;10.13;;
73168;SDS011;61379;59.732;30.468;2023-01-26T03:40:56;10.00;;;9.30;;
73168;SDS011;61379;59.732;30.468;2023-01-26T03:43:39;9.57;;;8.98;;
73168;SDS011;61379;59.732;30.468;2023-01-26T03:46:24;10.02;;;9.10;;
73168;SDS011;61379;59.732;30.468;2023-01-26T03:49:09;9.55;;;8.82;;
73168;SDS011;61379;59.732;30.468;2023-01-26T03:51:53;10.07;;;9.18;;
73168;SDS011;61379;59.732;30.468;2023-01-26T03:54:37;10.95;;;10.23;;
73168;SDS011;61379;59.732;30.468;2023-01-26T03:57:21;10.35;;;9.65;;
73168;SDS011;61379;59.732;30.468;2023-01-26T03:59:48;10.00;;;9.40;;
73168;SDS011;61379;59.732;30.468;2023-01-26T04:02:15;11.00;;;10.10;;
73168;SDS011;61379;59.732;30.468;2023-01-26T04:05:00;10.00;;;9.30;;
73168;SDS011;61379;59.732;30.468;2023-01-26T04:07:44;9.45;;;8.85;;
73168;SDS011;61379;59.732;30.468;2023-01-26T04:10:28;9.63;;;8.98;;
73168;SDS011;61379;59.732;30.468;2023-01-26T04:12:55;9.75;;;9.10;;
73168;SDS011;61379;59.732;30.468;2023-01-26T04:15:39;10.30;;;9.43;;
73168;SDS011;61379;59.732;30.468;2023-01-26T04:18:23;10.07;;;9.38;;
73168;SDS011;61379;59.732;30.468;2023-01-26T04:21:09;10.20;;;9.48;;
73168;SDS011;61379;59.732;30.468;2023-01-26T04:23:55;10.32;;;9.60;;
73168;SDS011;61379;59.732;30.468;2023-01-26T04:26:22;10.25;;;9.40;;
73168;SDS011;61379;59.732;30.468;2023-01-26T04:28:49;9.85;;;9.25;;
73168;SDS011;61379;59.732;30.468;2023-01-26T04:31:15;10.55;;;9.73;;
73168;SDS011;61379;59.732;30.468;2023-01-26T04:33:42;10.63;;;9.93;;
73168;SDS011;61379;59.732;30.468;2023-01-26T04:36:10;10.07;;;9.48;;
73168;SDS011;61379;59.732;30.468;2023-01-26T04:38:37;12.32;;;11.10;;
73168;SDS011;61379;59.732;30.468;2023-01-26T04:41:04;9.82;;;9.13;;
73168;SDS011;61379;59.732;30.468;2023-01-26T04:43:30;11.23;;;10.27;;
73168;SDS011;61379;59.732;30.468;2023-01-26T04:45:57;10.77;;;9.98;;
73168;SDS011;61379;59.732;30.468;2023-01-26T04:48:24;9.93;;;9.07;;
73168;SDS011;61379;59.732;30.468;2023-01-26T04:50:54;10.73;;;9.93;;
73168;SDS011;61379;59.732;30.468;2023-01-26T04:53:22;11.13;;;10.13;;
73168;SDS011;61379;59.732;30.468;2023-01-26T04:55:49;10.05;;;9.25;;
73168;SDS011;61379;59.732;30.468;2023-01-26T04:58:15;11.60;;;10.52;;
73168;SDS011;61379;59.732;30.468;2023-01-26T05:00:42;12.27;;;11.38;;
73168;SDS011;61379;59.732;30.468;2023-01-26T05:03:09;10.82;;;9.93;;
73168;SDS011;61379;59.732;30.468;2023-01-26T05:05:35;11.30;;;10.32;;
73168;SDS011;61379;59.732;30.468;2023-01-26T05:08:03;10.32;;;9.57;;
73168;SDS011;61379;59.732;30.468;2023-01-26T05:10:31;10.70;;;9.90;;
73168;SDS011;61379;59.732;30.468;2023-01-26T05:12:58;11.18;;;10.27;;
73168;SDS011;61379;59.732;30.468;2023-01-26T05:15:25;10.65;;;9.85;;
73168;SDS011;61379;59.732;30.468;2023-01-26T05:17:52;10.82;;;9.90;;
73168;SDS011;61379;59.732;30.468;2023-01-26T05:20:18;10.38;;;9.55;;
73168;SDS011;61379;59.732;30.468;2023-01-26T05:22:45;9.68;;;8.88;;
73168;SDS011;61379;59.732;30.468;2023-01-26T05:25:12;9.25;;;8.50;;
73168;SDS011;61379;59.732;30.468;2023-01-26T05:27:40;10.98;;;10.10;;
73168;SDS011;61379;59.732;30.468;2023-01-26T05:30:07;10.35;;;9.32;;
73168;SDS011;61379;59.732;30.468;2023-01-26T05:32:34;10.23;;;9.32;;
73168;SDS011;61379;59.732;30.468;2023-01-26T05:35:00;10.98;;;9.90;;
73168;SDS011;61379;59.732;30.468;2023-01-26T05:37:29;11.02;;;9.68;;
73168;SDS011;61379;59.732;30.468;2023-01-26T05:39:55;10.65;;;9.73;;
73168;SDS011;61379;59.732;30.468;2023-01-26T05:42:22;12.75;;;10.73;;
73168;SDS011;61379;59.732;30.468;2023-01-26T05:44:51;11.18;;;10.00;;
73168;SDS011;61379;59.732;30.468;2023-01-26T05:47:17;13.05;;;11.68;;
73168;SDS011;61379;59.732;30.468;2023-01-26T05:49:44;9.77;;;8.98;;
73168;SDS011;61379;59.732;30.468;2023-01-26T05:52:12;11.95;;;10.65;;
73168;SDS011;61379;59.732;30.468;2023-01-26T05:54:39;11.75;;;10.55;;
73168;SDS011;61379;59.732;30.468;2023-01-26T05:57:06;12.18;;;10.95;;
73168;SDS011;61379;59.732;30.468;2023-01-26T05:59:33;9.35;;;8.63;;
73168;SDS011;61379;59.732;30.468;2023-01-26T06:02:01;12.15;;;10.27;;
73168;SDS011;61379;59.732;30.468;2023-01-26T06:04:28;12.60;;;11.38;;
73168;SDS011;61379;59.732;30.468;2023-01-26T06:06:55;11.38;;;10.38;;
73168;SDS011;61379;59.732;30.468;2023-01-26T06:09:22;11.05;;;10.18;;
73168;SDS011;61379;59.732;30.468;2023-01-26T06:11:49;10.23;;;9.48;;
73168;SDS011;61379;59.732;30.468;2023-01-26T06:14:16;10.25;;;9.45;;
73168;SDS011;61379;59.732;30.468;2023-01-26T06:16:43;10.98;;;10.13;;
73168;SDS011;61379;59.732;30.468;2023-01-26T06:19:11;12.13;;;10.90;;
73168;SDS011;61379;59.732;30.468;2023-01-26T06:21:37;12.20;;;11.30;;
73168;SDS011;61379;59.732;30.468;2023-01-26T06:24:04;10.98;;;10.18;;
73168;SDS011;61379;59.732;30.468;2023-01-26T06:26:31;9.75;;;8.95;;
73168;SDS011;61379;59.732;30.468;2023-01-26T06:28:58;11.38;;;10.27;;
73168;SDS011;61379;59.732;30.468;2023-01-26T06:31:25;9.45;;;8.85;;
73168;SDS011;61379;59.732;30.468;2023-01-26T06:33:53;12.20;;;11.20;;
73168;SDS011;61379;59.732;30.468;2023-01-26T06:36:21;12.30;;;11.18;;
73168;SDS011;61379;59.732;30.468;2023-01-26T06:38:49;11.25;;;10.45;;
73168;SDS011;61379;59.732;30.468;2023-01-26T06:41:17;12.05;;;11.05;;
73168;SDS011;61379;59.732;30.468;2023-01-26T06:43:44;12.85;;;11.85;;
73168;SDS011;61379;59.732;30.468;2023-01-26T06:46:11;10.77;;;9.98;;
73168;SDS011;61379;59.732;30.468;2023-01-26T06:48:38;11.18;;;10.38;;
73168;SDS011;61379;59.732;30.468;2023-01-26T06:53:51;10.65;;;9.85;;
73168;SDS011;61379;59.732;30.468;2023-01-26T06:58:44;11.30;;;10.50;;
73168;SDS011;61379;59.732;30.468;2023-01-26T07:01:12;10.43;;;9.73;;
73168;SDS011;61379;59.732;30.468;2023-01-26T07:03:40;11.35;;;10.43;;
73168;SDS011;61379;59.732;30.468;2023-01-26T07:06:06;9.60;;;9.07;;
73168;SDS011;61379;59.732;30.468;2023-01-26T07:08:36;11.35;;;10.45;;
73168;SDS011;61379;59.732;30.468;2023-01-26T07:11:05;11.43;;;10.60;;
73168;SDS011;61379;59.732;30.468;2023-01-26T07:13:32;13.35;;;12.13;;
73168;SDS011;61379;59.732;30.468;2023-01-26T07:15:59;12.05;;;11.15;;
73168;SDS011;61379;59.732;30.468;2023-01-26T07:18:26;10.95;;;10.15;;
73168;SDS011;61379;59.732;30.468;2023-01-26T07:20:52;11.68;;;10.70;;
73168;SDS011;61379;59.732;30.468;2023-01-26T07:23:19;11.48;;;10.57;;
73168;SDS011;61379;59.732;30.468;2023-01-26T07:25:46;12.23;;;11.23;;
73168;SDS011;61379;59.732;30.468;2023-01-26T07:28:14;12.43;;;11.45;;
73168;SDS011;61379;59.732;30.468;2023-01-26T07:30:40;12.27;;;11.30;;
73168;SDS011;61379;59.732;30.468;2023-01-26T07:33:07;11.60;;;10.52;;
73168;SDS011;61379;59.732;30.468;2023-01-26T07:35:34;12.20;;;11.30;;
73168;SDS011;61379;59.732;30.468;2023-01-26T07:38:02;12.20;;;11.27;;
73168;SDS011;61379;59.732;30.468;2023-01-26T07:40:29;12.15;;;11.23;;
73168;SDS011;61379;59.732;30.468;2023-01-26T07:42:55;10.75;;;9.98;;
73168;SDS011;61379;59.732;30.468;2023-01-26T07:45:25;12.10;;;11.18;;
73168;SDS011;61379;59.732;30.468;2023-01-26T07:47:53;11.43;;;10.70;;
73168;SDS011;61379;59.732;30.468;2023-01-26T07:50:20;12.20;;;11.27;;
73168;SDS011;61379;59.732;30.468;2023-01-26T07:52:46;12.40;;;11.50;;
73168;SDS011;61379;59.732;30.468;2023-01-26T07:55:13;13.20;;;12.05;;
73168;SDS011;61379;59.732;30.468;2023-01-26T07:57:40;11.90;;;10.95;;
73168;SDS011;61379;59.732;30.468;2023-01-26T08:00:07;12.32;;;11.43;;
73168;SDS011;61379;59.732;30.468;2023-01-26T08:02:35;12.85;;;11.85;;
73168;SDS011;61379;59.732;30.468;2023-01-26T08:05:02;13.52;;;12.38;;
73168;SDS011;61379;59.732;30.468;2023-01-26T08:07:29;12.02;;;11.13;;
73168;SDS011;61379;59.732;30.468;2023-01-26T08:09:56;12.70;;;11.50;;
73168;SDS011;61379;59.732;30.468;2023-01-26T08:12:23;11.77;;;10.82;;
73168;SDS011;61379;59.732;30.468;2023-01-26T08:14:50;12.35;;;11.38;;
73168;SDS011;61379;59.732;30.468;2023-01-26T08:17:16;12.48;;;11.32;;
73168;SDS011;61379;59.732;30.468;2023-01-26T08:19:45;11.63;;;10.80;;
73168;SDS011;61379;59.732;30.468;2023-01-26T08:22:12;12.73;;;11.63;;
73168;SDS011;61379;59.732;30.468;2023-01-26T08:24:38;11.77;;;10.68;;
73168;SDS011;61379;59.732;30.468;2023-01-26T08:27:05;11.23;;;10.32;;
73168;SDS011;61379;59.732;30.468;2023-01-26T08:29:32;12.45;;;11.40;;
73168;SDS011;61379;59.732;30.468;2023-01-26T08:31:58;13.20;;;12.10;;
73168;SDS011;61379;59.732;30.468;2023-01-26T08:34:25;12.25;;;11.32;;
73168;SDS011;61379;59.732;30.468;2023-01-26T08:36:53;12.45;;;11.15;;
73168;SDS011;61379;59.732;30.468;2023-01-26T08:39:20;10.48;;;9.70;;
73168;SDS011;61379;59.732;30.468;2023-01-26T08:41:46;11.07;;;10.27;;
73168;SDS011;61379;59.732;30.468;2023-01-26T08:44:13;10.52;;;9.77;;
73168;SDS011;61379;59.732;30.468;2023-01-26T08:46:42;11.18;;;10.30;;
73168;SDS011;61379;59.732;30.468;2023-01-26T08:49:08;11.43;;;10.40;;
73168;SDS011;61379;59.732;30.468;2023-01-26T08:51:35;10.50;;;9.55;;
73168;SDS011;61379;59.732;30.468;2023-01-26T08:54:05;9.10;;;8.50;;
73168;SDS011;61379;59.732;30.468;2023-01-26T08:56:32;10.65;;;9.85;;
73168;SDS011;61379;59.732;30.468;2023-01-26T08:58:59;10.13;;;9.32;;
73168;SDS011;61379;59.732;30.468;2023-01-26T09:01:25;12.80;;;9.13;;
73168;SDS011;61379;59.732;30.468;2023-01-26T09:03:52;10.77;;;9.77;;
73168;SDS011;61379;59.732;30.468;2023-01-26T09:06:20;10.75;;;9.75;;
73168;SDS011;61379;59.732;30.468;2023-01-26T09:08:47;10.73;;;9.77;;
73168;SDS011;61379;59.732;30.468;2023-01-26T09:11:15;11.02;;;10.00;;
73168;SDS011;61379;59.732;30.468;2023-01-26T09:13:42;10.75;;;9.95;;
73168;SDS011;61379;59.732;30.468;2023-01-26T09:16:11;11.20;;;10.32;;
73168;SDS011;61379;59.732;30.468;2023-01-26T09:18:40;10.25;;;9.55;;
73168;SDS011;61379;59.732;30.468;2023-01-26T09:21:07;10.70;;;9.73;;
73168;SDS011;61379;59.732;30.468;2023-01-26T09:23:34;9.50;;;8.75;;
73168;SDS011;61379;59.732;30.468;2023-01-26T09:26:01;10.98;;;10.10;;
73168;SDS011;61379;59.732;30.468;2023-01-26T09:28:30;11.18;;;10.27;;
73168;SDS011;61379;59.732;30.468;2023-01-26T09:31:01;11.02;;;10.13;;
73168;SDS011;61379;59.732;30.468;2023-01-26T09:33:28;13.88;;;11.70;;
73168;SDS011;61379;59.732;30.468;2023-01-26T09:35:54;12.80;;;11.60;;
73168;SDS011;61379;59.732;30.468;2023-01-26T09:38:21;12.73;;;11.55;;
73168;SDS011;61379;59.732;30.468;2023-01-26T09:40:50;14.82;;;13.45;;
73168;SDS011;61379;59.732;30.468;2023-01-26T09:43:24;12.65;;;11.55;;
73168;SDS011;61379;59.732;30.468;2023-01-26T09:45:56;11.82;;;10.85;;
73168;SDS011;61379;59.732;30.468;2023-01-26T09:48:28;12.38;;;11.15;;
73168;SDS011;61379;59.732;30.468;2023-01-26T09:50:58;11.80;;;10.73;;
73168;SDS011;61379;59.732;30.468;2023-01-26T09:53:27;10.15;;;9.45;;
73168;SDS011;61379;59.732;30.468;2023-01-26T09:58:26;11.10;;;10.18;;
73168;SDS011;61379;59.732;30.468;2023-01-26T10:00:57;11.10;;;10.20;;
73168;SDS011;61379;59.732;30.468;2023-01-26T10:03:27;10.25;;;9.45;;
73168;SDS011;61379;59.732;30.468;2023-01-26T10:05:56;10.68;;;9.90;;
73168;SDS011;61379;59.732;30.468;2023-01-26T10:08:24;10.25;;;9.35;;
73168;SDS011;61379;59.732;30.468;2023-01-26T10:10:52;11.82;;;10.73;;
73168;SDS011;61379;59.732;30.468;2023-01-26T10:13:19;10.95;;;10.00;;
73168;SDS011;61379;59.732;30.468;2023-01-26T10:15:47;13.98;;;12.65;;
73168;SDS011;61379;59.732;30.468;2023-01-26T10:18:18;12.55;;;11.27;;
73168;SDS011;61379;59.732;30.468;2023-01-26T10:20:48;10.95;;;9.95;;
73168;SDS011;61379;59.732;30.468;2023-01-26T10:23:16;12.55;;;11.43;;
73168;SDS011;61379;59.732;30.468;2023-01-26T10:25:46;11.52;;;10.43;;
73168;SDS011;61379;59.732;30.468;2023-01-26T10:28:13;11.98;;;10.88;;
73168;SDS011;61379;59.732;30.468;2023-01-26T10:30:41;12.85;;;11.75;;
73168;SDS011;61379;59.732;30.468;2023-01-26T10:33:11;11.23;;;10.20;;
73168;SDS011;61379;59.732;30.468;2023-01-26T10:35:39;11.70;;;10.52;;
73168;SDS011;61379;59.732;30.468;2023-01-26T10:40:48;11.45;;;10.52;;
73168;SDS011;61379;59.732;30.468;2023-01-26T10:43:16;11.30;;;10.27;;
73168;SDS011;61379;59.732;30.468;2023-01-26T10:45:43;12.43;;;11.20;;
73168;SDS011;61379;59.732;30.468;2023-01-26T11:01:04;12.55;;;11.45;;
73168;SDS011;61379;59.732;30.468;2023-01-26T11:03:34;12.98;;;11.98;;
73168;SDS011;61379;59.732;30.468;2023-01-26T11:06:12;11.50;;;10.60;;
73168;SDS011;61379;59.732;30.468;2023-01-26T11:08:38;12.02;;;11.13;;
73168;SDS011;61379;59.732;30.468;2023-01-26T11:11:04;12.30;;;11.35;;
73168;SDS011;61379;59.732;30.468;2023-01-26T11:13:32;11.73;;;10.93;;
73168;SDS011;61379;59.732;30.468;2023-01-26T11:16:02;11.57;;;10.68;;
73168;SDS011;61379;59.732;30.468;2023-01-26T11:18:33;12.30;;;11.38;;
73168;SDS011;61379;59.732;30.468;2023-01-26T11:21:02;13.15;;;11.95;;
73168;SDS011;61379;59.732;30.468;2023-01-26T11:23:42;13.43;;;12.35;;
73168;SDS011;61379;59.732;30.468;2023-01-26T11:29:05;13.32;;;12.27;;
73168;SDS011;61379;59.732;30.468;2023-01-26T11:31:40;13.52;;;12.43;;
73168;SDS011;61379;59.732;30.468;2023-01-26T11:34:12;13.30;;;12.15;;
73168;SDS011;61379;59.732;30.468;2023-01-26T11:36:46;11.77;;;10.98;;
73168;SDS011;61379;59.732;30.468;2023-01-26T11:41:41;11.70;;;10.85;;
73168;SDS011;61379;59.732;30.468;2023-01-26T11:46:51;11.48;;;10.57;;
73168;SDS011;61379;59.732;30.468;2023-01-26T11:49:26;11.32;;;10.63;;
73168;SDS011;61379;59.732;30.468;2023-01-26T11:51:57;9.88;;;9.18;;
73168;SDS011;61379;59.732;30.468;2023-01-26T11:54:32;11.77;;;11.02;;
73168;SDS011;61379;59.732;30.468;2023-01-26T11:57:03;11.18;;;10.45;;
73168;SDS011;61379;59.732;30.468;2023-01-26T11:59:33;10.90;;;10.20;;
73168;SDS011;61379;59.732;30.468;2023-01-26T12:02:01;10.00;;;9.40;;
73168;SDS011;61379;59.732;30.468;2023-01-26T12:04:29;10.73;;;9.93;;
73168;SDS011;61379;59.732;30.468;2023-01-26T12:07:00;10.85;;;10.18;;
73168;SDS011;61379;59.732;30.468;2023-01-26T12:09:29;10.40;;;9.70;;
73168;SDS011;61379;59.732;30.468;2023-01-26T12:11:59;10.70;;;10.00;;
73168;SDS011;61379;59.732;30.468;2023-01-26T12:14:29;10.50;;;9.80;;
73168;SDS011;61379;59.732;30.468;2023-01-26T12:17:01;11.27;;;10.57;;
73168;SDS011;61379;59.732;30.468;2023-01-26T12:19:38;11.45;;;10.60;;
73168;SDS011;61379;59.732;30.468;2023-01-26T12:22:07;10.85;;;10.05;;
73168;SDS011;61379;59.732;30.468;2023-01-26T12:24:37;10.75;;;9.95;;
73168;SDS011;61379;59.732;30.468;2023-01-26T12:27:08;11.57;;;10.85;;
73168;SDS011;61379;59.732;30.468;2023-01-26T12:29:38;11.30;;;10.52;;
73168;SDS011;61379;59.732;30.468;2023-01-26T12:34:32;10.73;;;10.13;;
73168;SDS011;61379;59.732;30.468;2023-01-26T12:37:03;11.68;;;10.90;;
73168;SDS011;61379;59.732;30.468;2023-01-26T12:39:35;11.18;;;10.48;;
73168;SDS011;61379;59.732;30.468;2023-01-26T12:44:32;11.07;;;10.38;;
73168;SDS011;61379;59.732;30.468;2023-01-26T12:47:02;10.05;;;9.48;;
73168;SDS011;61379;59.732;30.468;2023-01-26T12:49:31;9.93;;;9.32;;
73168;SDS011;61379;59.732;30.468;2023-01-26T12:52:00;10.90;;;10.02;;
73168;SDS011;61379;59.732;30.468;2023-01-26T12:54:33;11.38;;;10.57;;
73168;SDS011;61379;59.732;30.468;2023-01-26T12:57:01;11.15;;;10.52;;
73168;SDS011;61379;59.732;30.468;2023-01-26T12:59:31;10.77;;;10.18;;
73168;SDS011;61379;59.732;30.468;2023-01-26T13:01:57;10.98;;;10.35;;
73168;SDS011;61379;59.732;30.468;2023-01-26T13:04:24;10.82;;;10.23;;
73168;SDS011;61379;59.732;30.468;2023-01-26T13:07:00;11.05;;;10.35;;
73168;SDS011;61379;59.732;30.468;2023-01-26T13:09:27;11.25;;;10.35;;
73168;SDS011;61379;59.732;30.468;2023-01-26T13:11:54;10.32;;;9.73;;
73168;SDS011;61379;59.732;30.468;2023-01-26T13:19:51;10.93;;;10.13;;
73168;SDS011;61379;59.732;30.468;2023-01-26T13:25:10;11.05;;;10.40;;
73168;SDS011;61379;59.732;30.468;2023-01-26T13:27:42;11.52;;;10.88;;
73168;SDS011;61379;59.732;30.468;2023-01-26T13:32:50;11.00;;;10.40;;
73168;SDS011;61379;59.732;30.468;2023-01-26T13:35:18;11.13;;;10.45;;
73168;SDS011;61379;59.732;30.468;2023-01-26T13:37:47;11.30;;;10.60;;
73168;SDS011;61379;59.732;30.468;2023-01-26T13:40:16;10.68;;;10.02;;
73168;SDS011;61379;59.732;30.468;2023-01-26T13:45:14;10.18;;;9.57;;
73168;SDS011;61379;59.732;30.468;2023-01-26T13:47:42;10.38;;;9.77;;
73168;SDS011;61379;59.732;30.468;2023-01-26T13:50:20;9.82;;;9.23;;
73168;SDS011;61379;59.732;30.468;2023-01-26T13:52:46;11.75;;;10.95;;
73168;SDS011;61379;59.732;30.468;2023-01-26T13:55:12;11.02;;;10.23;;
73168;SDS011;61379;59.732;30.468;2023-01-26T13:57:45;11.35;;;10.57;;
73168;SDS011;61379;59.732;30.468;2023-01-26T14:00:15;9.77;;;9.18;;
73168;SDS011;61379;59.732;30.468;2023-01-26T14:02:41;9.38;;;8.77;;
73168;SDS011;61379;59.732;30.468;2023-01-26T14:05:19;9.52;;;8.73;;
73168;SDS011;61379;59.732;30.468;2023-01-26T14:07:45;9.90;;;9.30;;
73168;SDS011;61379;59.732;30.468;2023-01-26T14:10:14;9.73;;;9.05;;
73168;SDS011;61379;59.732;30.468;2023-01-26T14:12:41;10.13;;;9.23;;
73168;SDS011;61379;59.732;30.468;2023-01-26T14:15:18;10.45;;;9.65;;
73168;SDS011;61379;59.732;30.468;2023-01-26T14:17:47;9.85;;;9.25;;
73168;SDS011;61379;59.732;30.468;2023-01-26T14:20:17;10.75;;;9.95;;
73168;SDS011;61379;59.732;30.468;2023-01-26T14:22:45;10.02;;;9.43;;
73168;SDS011;61379;59.732;30.468;2023-01-26T14:25:26;10.23;;;9.50;;
73168;SDS011;61379;59.732;30.468;2023-01-26T14:27:52;10.15;;;9.45;;
73168;SDS011;61379;59.732;30.468;2023-01-26T14:30:24;10.93;;;10.15;;
73168;SDS011;61379;59.732;30.468;2023-01-26T14:33:01;10.43;;;9.70;;
73168;SDS011;61379;59.732;30.468;2023-01-26T14:35:28;11.10;;;10.40;;
73168;SDS011;61379;59.732;30.468;2023-01-26T14:38:03;10.05;;;9.45;;
73168;SDS011;61379;59.732;30.468;2023-01-26T14:40:29;9.98;;;9.38;;
73168;SDS011;61379;59.732;30.468;2023-01-26T14:42:55;10.48;;;9.77;;
73168;SDS011;61379;59.732;30.468;2023-01-26T14:45:24;10.48;;;9.68;;
73168;SDS011;61379;59.732;30.468;2023-01-26T14:47:51;10.38;;;9.68;;
73168;SDS011;61379;59.732;30.468;2023-01-26T14:50:20;9.40;;;8.70;;
73168;SDS011;61379;59.732;30.468;2023-01-26T14:52:48;9.85;;;9.00;;
73168;SDS011;61379;59.732;30.468;2023-01-26T14:55:15;10.27;;;9.57;;
73168;SDS011;61379;59.732;30.468;2023-01-26T14:57:42;10.70;;;10.00;;
73168;SDS011;61379;59.732;30.468;2023-01-26T15:00:17;9.85;;;9.25;;
73168;SDS011;61379;59.732;30.468;2023-01-26T15:02:45;10.77;;;10.05;;
73168;SDS011;61379;59.732;30.468;2023-01-26T15:05:12;9.48;;;8.98;;
73168;SDS011;61379;59.732;30.468;2023-01-26T15:07:41;10.20;;;9.43;;
73168;SDS011;61379;59.732;30.468;2023-01-26T15:12:54;10.25;;;9.63;;
73168;SDS011;61379;59.732;30.468;2023-01-26T15:15:20;10.27;;;9.57;;
73168;SDS011;61379;59.732;30.468;2023-01-26T15:17:47;10.63;;;9.93;;
73168;SDS011;61379;59.732;30.468;2023-01-26T15:20:37;10.68;;;9.95;;
73168;SDS011;61379;59.732;30.468;2023-01-26T15:23:09;10.63;;;9.73;;